Time;durP1;ratioP1;P1;durP2;ratioP2;P2;SDS_P1;SDS_P2;PMS_P1;PMS_P2;Temp;Humidity;BMP_temperature;BMP_pressure;BME280_temperature;BME280_humidity;BME280_pressure;Samples;Min_cycle;Max_cycle;Signal;HPM_P1;HPM_P2
2021/07/31 00:01:50;;;;;;;5.30;4.53;;;21.70;99.90;;;;;;4975427;28;20457;-81
2021/07/31 00:04:20;;;;;;;6.23;4.57;;;21.60;99.90;;;;;;4975847;28;20455;-81
2021/07/31 00:06:48;;;;;;;5.80;4.50;;;21.80;99.90;;;;;;4974654;28;20455;-80
2021/07/31 00:09:16;;;;;;;254.53;27.10;;;21.80;99.90;;;;;;4975121;28;20459;-81
2021/07/31 00:11:44;;;;;;;35.17;13.77;;;21.70;99.90;;;;;;4975646;28;20456;-82
2021/07/31 00:14:13;;;;;;;8.17;4.57;;;21.60;99.90;;;;;;4975173;28;21157;-81
2021/07/31 00:16:41;;;;;;;4.73;3.93;;;21.50;99.90;;;;;;4975481;28;20451;-82
2021/07/31 00:19:09;;;;;;;6.70;4.77;;;21.50;99.90;;;;;;4975126;28;20450;-82
2021/07/31 00:21:38;;;;;;;4.13;3.83;;;21.60;99.90;;;;;;4992009;28;20561;-81
2021/07/31 00:24:07;;;;;;;4.57;4.13;;;21.60;99.90;;;;;;4979227;28;20438;-82
2021/07/31 00:26:35;;;;;;;4.50;3.93;;;21.60;99.90;;;;;;4994139;28;20992;-80
2021/07/31 00:29:03;;;;;;;4.63;4.23;;;21.60;99.90;;;;;;4977961;28;20466;-82
2021/07/31 00:31:31;;;;;;;6.60;3.60;;;21.60;99.90;;;;;;4978807;28;20489;-80
2021/07/31 00:33:59;;;;;;;5.73;3.87;;;21.70;99.90;;;;;;4978771;28;21253;-81
2021/07/31 00:36:27;;;;;;;5.17;4.13;;;21.90;99.90;;;;;;4993044;28;20447;-80
2021/07/31 00:38:57;;;;;;;7.97;3.83;;;22.00;99.90;;;;;;4977712;28;21042;-81
2021/07/31 00:41:25;;;;;;;4.97;4.47;;;22.10;99.90;;;;;;4978384;28;20978;-80
2021/07/31 00:43:53;;;;;;;4.60;4.20;;;22.00;99.90;;;;;;4977145;28;20458;-81
2021/07/31 00:46:22;;;;;;;5.17;4.67;;;22.00;99.90;;;;;;4976627;28;20458;-81
2021/07/31 00:48:50;;;;;;;3.80;3.50;;;22.00;99.90;;;;;;4977549;28;20876;-81
2021/07/31 00:51:19;;;;;;;4.30;4.00;;;22.00;99.90;;;;;;4993405;28;20515;-80
2021/07/31 00:53:49;;;;;;;5.00;4.10;;;22.10;99.90;;;;;;4978870;28;20475;-80
2021/07/31 00:56:19;;;;;;;5.13;4.33;;;22.20;99.90;;;;;;4979024;28;20973;-81
2021/07/31 00:58:48;;;;;;;4.87;4.37;;;22.20;99.90;;;;;;4992216;28;20462;-81
2021/07/31 01:01:16;;;;;;;4.20;3.80;;;22.20;99.90;;;;;;4978641;28;20467;-80
2021/07/31 01:03:46;;;;;;;5.10;4.60;;;22.20;99.90;;;;;;4977381;28;20439;-80
2021/07/31 01:06:14;;;;;;;4.83;4.33;;;22.20;99.90;;;;;;4976909;28;20464;-80
2021/07/31 01:08:42;;;;;;;4.53;4.03;;;22.20;99.90;;;;;;4978114;28;20449;-80
2021/07/31 01:11:10;;;;;;;5.53;3.80;;;22.10;99.90;;;;;;4975572;28;21355;-80
2021/07/31 01:13:41;;;;;;;4.53;3.67;;;22.20;99.90;;;;;;4978049;28;20447;-81
2021/07/31 01:16:09;;;;;;;3.47;2.80;;;22.20;99.90;;;;;;4978717;28;20438;-81
2021/07/31 01:18:38;;;;;;;4.67;4.20;;;22.20;99.90;;;;;;4993455;28;20473;-81
2021/07/31 01:21:06;;;;;;;3.67;2.73;;;22.10;99.90;;;;;;4992474;28;20471;-80
2021/07/31 01:23:36;;;;;;;3.37;2.40;;;21.90;6.70;;;;;;4978314;28;20470;-81
2021/07/31 01:26:04;;;;;;;3.67;2.77;;;21.70;1.00;;;;;;4978078;28;20477;-80
2021/07/31 01:28:32;;;;;;;3.60;2.53;;;21.60;1.00;;;;;;4978429;28;20440;-80
2021/07/31 01:31:00;;;;;;;5.83;2.43;;;21.50;1.00;;;;;;4977757;28;20455;-79
2021/07/31 01:33:28;;;;;;;4.30;1.93;;;21.40;11.00;;;;;;4977729;28;20450;-81
2021/07/31 01:35:56;;;;;;;2.57;2.27;;;21.40;1.00;;;;;;4978106;28;20484;-82
2021/07/31 01:38:24;;;;;;;4.07;2.03;;;21.30;1.00;;;;;;4977694;28;20456;-81
2021/07/31 01:40:54;;;;;;;5.10;2.23;;;21.30;1.00;;;;;;4976110;28;20526;-80
2021/07/31 01:43:22;;;;;;;2.07;1.87;;;21.40;1.00;;;;;;4982481;28;21036;-82
2021/07/31 01:45:50;;;;;;;1.90;1.70;;;21.50;1.00;;;;;;4978526;28;20455;-79
2021/07/31 01:48:18;;;;;;;2.33;2.07;;;21.40;1.00;;;;;;4991785;28;20459;-80
2021/07/31 01:50:46;;;;;;;2.50;2.07;;;21.40;1.00;;;;;;4992521;28;20474;-82
2021/07/31 01:53:14;;;;;;;2.00;1.80;;;21.40;1.00;;;;;;4977411;28;20470;-81
2021/07/31 01:55:43;;;;;;;2.00;1.90;;;21.20;1.00;;;;;;4992161;28;20476;-80
2021/07/31 01:58:12;;;;;;;1.70;1.60;;;21.20;1.00;;;;;;4990536;28;20466;-80
2021/07/31 02:00:40;;;;;;;2.77;1.63;;;21.20;1.00;;;;;;4975183;28;21064;-81
2021/07/31 02:03:09;;;;;;;4.53;2.40;;;21.20;1.00;;;;;;4976300;28;20511;-82
2021/07/31 02:05:37;;;;;;;3.40;1.90;;;21.20;1.00;;;;;;4976199;28;20445;-81
2021/07/31 02:08:05;;;;;;;2.33;1.50;;;21.20;1.00;;;;;;4975552;28;20502;-81
2021/07/31 02:10:33;;;;;;;2.93;1.60;;;21.30;1.00;;;;;;4976506;28;20511;-81
2021/07/31 02:13:01;;;;;;;3.53;1.53;;;21.40;1.00;;;;;;4975916;28;20448;-81
2021/07/31 02:15:31;;;;;;;4.13;1.80;;;21.50;1.00;;;;;;4975646;28;20477;-81
2021/07/31 02:18:00;;;;;;;2.70;1.60;;;21.50;1.00;;;;;;4975927;28;20455;-80
2021/07/31 02:20:28;;;;;;;2.90;2.10;;;21.50;1.00;;;;;;4975030;28;20537;-81
2021/07/31 02:22:56;;;;;;;2.60;1.50;;;21.40;1.00;;;;;;4975890;28;20443;-81
2021/07/31 02:25:24;;;;;;;2.00;1.50;;;21.50;1.00;;;;;;4975345;28;21024;-80
2021/07/31 02:27:52;;;;;;;6.00;1.50;;;21.40;1.00;;;;;;4990820;28;20491;-81
2021/07/31 02:30:21;;;;;;;2.30;2.10;;;21.40;1.00;;;;;;4974765;28;20473;-81
2021/07/31 02:32:51;;;;;;;4.33;1.60;;;21.40;1.00;;;;;;4974985;28;20451;-81
2021/07/31 02:35:19;;;;;;;4.60;1.40;;;21.30;1.00;;;;;;4973989;28;20471;-81
2021/07/31 02:37:47;;;;;;;1.80;1.40;;;21.40;1.00;;;;;;4975632;28;20993;-80
2021/07/31 02:40:15;;;;;;;4.90;1.80;;;21.30;1.00;;;;;;4974999;28;20911;-80
2021/07/31 02:42:43;;;;;;;2.10;1.53;;;21.30;1.00;;;;;;4986741;28;20481;-82
2021/07/31 02:45:12;;;;;;;1.70;1.40;;;21.30;1.00;;;;;;4988904;28;20865;-84
2021/07/31 02:47:40;;;;;;;2.70;1.50;;;21.20;1.00;;;;;;4974377;28;20451;-81
2021/07/31 02:50:10;;;;;;;2.40;1.70;;;21.20;1.00;;;;;;4989710;28;20523;-81
2021/07/31 02:52:38;;;;;;;3.20;1.87;;;21.20;1.00;;;;;;4975345;28;20997;-82
2021/07/31 02:55:07;;;;;;;3.47;1.37;;;21.20;1.00;;;;;;4975049;28;20476;-83
2021/07/31 02:57:35;;;;;;;4.60;1.60;;;21.10;1.00;;;;;;4987934;28;20460;-82
2021/07/31 03:00:06;;;;;;;2.67;1.20;;;21.10;1.00;;;;;;4974625;28;20994;-82
2021/07/31 03:02:34;;;;;;;4.37;1.50;;;21.00;1.00;;;;;;4975249;28;20519;-80
2021/07/31 03:05:02;;;;;;;1.93;1.40;;;21.00;1.00;;;;;;4974860;28;20439;-81
2021/07/31 03:07:32;;;;;;;3.47;1.10;;;20.80;1.00;;;;;;4989707;28;20947;-81
2021/07/31 03:10:01;;;;;;;1.53;1.43;;;20.90;1.00;;;;;;4973929;28;20486;-81
2021/07/31 03:12:31;;;;;;;2.43;1.47;;;20.70;1.00;;;;;;4974224;28;20958;-82
2021/07/31 03:14:59;;;;;;;1.90;1.37;;;20.60;1.00;;;;;;4973666;28;20486;-79
2021/07/31 03:17:27;;;;;;;2.50;1.20;;;20.60;1.00;;;;;;4973203;28;20451;-80
2021/07/31 03:19:56;;;;;;;2.07;1.87;;;20.70;1.00;;;;;;4972718;28;20904;-81
2021/07/31 03:22:24;;;;;;;1.47;1.20;;;20.70;1.00;;;;;;4974869;28;20499;-80
2021/07/31 03:24:53;;;;;;;1.70;1.20;;;20.70;99.90;;;;;;4986039;28;20445;-80
2021/07/31 03:27:22;;;;;;;2.50;0.90;;;20.60;99.90;;;;;;4993626;28;20478;-81
2021/07/31 03:29:50;;;;;;;2.67;1.50;;;20.60;99.90;;;;;;4993695;28;20470;-81
2021/07/31 03:32:18;;;;;;;1.17;0.90;;;20.60;99.90;;;;;;4993624;28;20442;-81
2021/07/31 03:34:46;;;;;;;2.13;1.30;;;20.60;99.90;;;;;;4992619;28;20462;-82
2021/07/31 03:37:14;;;;;;;2.80;1.57;;;20.70;99.90;;;;;;4979704;28;21028;-80
2021/07/31 03:39:43;;;;;;;1.47;1.03;;;20.60;99.90;;;;;;4982672;28;20531;-80
2021/07/31 03:42:12;;;;;;;3.10;1.20;;;20.50;99.90;;;;;;4975608;28;20451;-81
2021/07/31 03:44:40;;;;;;;2.60;1.00;;;20.60;99.90;;;;;;4973917;28;20443;-81
2021/07/31 03:47:08;;;;;;;4.60;1.10;;;20.50;99.90;;;;;;4962441;28;20448;-80
2021/07/31 03:49:36;;;;;;;1.47;1.10;;;20.50;99.90;;;;;;4955835;28;20530;-80
2021/07/31 03:52:05;;;;;;;1.10;1.00;;;20.40;99.90;;;;;;4954932;29;20433;-81
2021/07/31 03:54:36;;;;;;;1.77;1.10;;;20.20;99.90;;;;;;4972787;28;20463;-80
2021/07/31 03:57:05;;;;;;;1.43;1.27;;;20.30;99.90;;;;;;4998530;28;20466;-81
2021/07/31 03:59:34;;;;;;;1.43;1.10;;;20.30;99.90;;;;;;4968449;28;20456;-81
2021/07/31 04:02:03;;;;;;;1.33;0.90;;;20.30;99.90;;;;;;4965848;28;20459;-81
2021/07/31 04:04:32;;;;;;;2.43;1.20;;;20.30;99.90;;;;;;4979227;28;20447;-80
2021/07/31 04:07:00;;;;;;;2.87;0.97;;;20.30;99.90;;;;;;4979226;28;20447;-79
2021/07/31 04:09:28;;;;;;;1.00;0.90;;;20.30;99.90;;;;;;4979065;28;20450;-80
2021/07/31 04:11:56;;;;;;;1.20;1.03;;;20.40;99.90;;;;;;4978719;28;20498;-81
2021/07/31 04:14:24;;;;;;;9.50;1.30;;;20.20;99.90;;;;;;4978664;28;20517;-80
2021/07/31 04:16:54;;;;;;;1.83;1.00;;;20.20;99.90;;;;;;4993774;28;20554;-81
2021/07/31 04:19:22;;;;;;;3.73;1.50;;;20.20;99.90;;;;;;4977176;28;20459;-79
2021/07/31 04:21:53;;;;;;;2.30;1.00;;;20.10;99.90;;;;;;4978650;28;20451;-80
2021/07/31 04:24:21;;;;;;;1.97;1.10;;;20.10;99.90;;;;;;4978052;28;20970;-80
2021/07/31 04:26:50;;;;;;;2.23;1.10;;;20.20;99.90;;;;;;4978376;28;20459;-80
2021/07/31 04:29:18;;;;;;;2.97;0.97;;;20.20;99.90;;;;;;4978207;28;20446;-80
2021/07/31 04:31:46;;;;;;;1.00;0.90;;;20.30;99.90;;;;;;4978532;28;20465;-79
2021/07/31 04:34:16;;;;;;;3.47;1.30;;;20.20;99.90;;;;;;4977955;28;20439;-80
2021/07/31 04:36:44;;;;;;;2.50;1.10;;;20.30;99.90;;;;;;4978130;28;20473;-80
2021/07/31 04:39:12;;;;;;;1.20;1.10;;;20.30;99.90;;;;;;4993280;28;20447;-80
2021/07/31 04:41:40;;;;;;;1.63;0.90;;;20.30;99.90;;;;;;4976914;28;20848;-81
2021/07/31 04:44:09;;;;;;;2.00;1.00;;;20.30;99.90;;;;;;4977905;28;20506;-81
2021/07/31 04:46:37;;;;;;;1.00;0.90;;;20.20;99.90;;;;;;4976921;28;20454;-81
2021/07/31 04:49:05;;;;;;;3.13;1.37;;;20.20;99.90;;;;;;4977621;28;20455;-82
2021/07/31 04:51:35;;;;;;;1.43;1.23;;;20.20;99.90;;;;;;4978325;28;20467;-80
2021/07/31 04:54:03;;;;;;;1.47;1.00;;;20.10;99.90;;;;;;4983655;28;20963;-80
2021/07/31 04:56:31;;;;;;;5.67;1.33;;;20.00;99.90;;;;;;4995473;28;20482;-79
2021/07/31 04:58:59;;;;;;;1.20;1.00;;;20.10;99.90;;;;;;4995388;28;20450;-81
2021/07/31 05:01:27;;;;;;;2.60;1.13;;;20.20;99.90;;;;;;4988980;28;20509;-80
2021/07/31 05:03:56;;;;;;;1.30;1.03;;;20.30;99.90;;;;;;4963983;28;20874;-81
2021/07/31 05:06:24;;;;;;;6.97;1.20;;;20.20;99.90;;;;;;4978707;28;20459;-81
2021/07/31 05:08:53;;;;;;;1.53;1.17;;;20.20;99.90;;;;;;4978165;28;20969;-80
2021/07/31 05:11:22;;;;;;;3.23;1.10;;;20.30;99.90;;;;;;4992974;28;20487;-80
2021/07/31 05:13:50;;;;;;;1.33;1.17;;;20.30;99.90;;;;;;4977422;28;20451;-81
2021/07/31 05:16:19;;;;;;;2.70;1.83;;;20.30;99.90;;;;;;4976388;28;20475;-80
2021/07/31 05:18:47;;;;;;;1.10;1.00;;;20.30;99.90;;;;;;4976448;28;20447;-80
2021/07/31 05:21:16;;;;;;;2.27;1.07;;;20.30;99.90;;;;;;4975950;28;20474;-80
2021/07/31 05:23:44;;;;;;;1.27;1.07;;;20.30;99.90;;;;;;4972911;28;21199;-80
2021/07/31 05:26:13;;;;;;;2.77;1.23;;;20.40;99.90;;;;;;4976720;28;20447;-81
2021/07/31 05:28:41;;;;;;;1.60;1.30;;;20.40;99.90;;;;;;4975377;28;20978;-81
2021/07/31 05:31:09;;;;;;;4.30;1.30;;;20.40;99.90;;;;;;4976933;28;20529;-80
2021/07/31 05:33:38;;;;;;;2.30;1.27;;;20.40;99.90;;;;;;4990061;28;20458;-80
2021/07/31 05:36:09;;;;;;;2.73;1.60;;;20.30;99.90;;;;;;4975149;28;20484;-81
2021/07/31 05:38:37;;;;;;;3.60;1.40;;;20.40;99.90;;;;;;4979163;28;20482;-79
2021/07/31 05:41:06;;;;;;;3.93;2.30;;;20.40;99.90;;;;;;4978172;28;20561;-80
2021/07/31 05:43:35;;;;;;;2.50;1.30;;;20.40;99.90;;;;;;4991768;28;20501;-79
2021/07/31 05:46:03;;;;;;;4.70;1.20;;;20.30;99.90;;;;;;4974681;28;20965;-81
2021/07/31 05:48:31;;;;;;;2.23;2.10;;;20.20;99.90;;;;;;4975199;28;20490;-81
2021/07/31 05:50:59;;;;;;;2.83;1.20;;;20.30;99.90;;;;;;4976024;28;20470;-80
2021/07/31 05:53:27;;;;;;;2.63;1.10;;;20.20;99.90;;;;;;4975176;28;20455;-80
2021/07/31 05:55:56;;;;;;;5.53;1.30;;;20.20;99.90;;;;;;4976194;28;20466;-81
2021/07/31 05:58:24;;;;;;;3.00;1.47;;;20.30;99.90;;;;;;4974603;28;20447;-79
2021/07/31 06:00:54;;;;;;;1.53;1.30;;;20.30;99.90;;;;;;4976033;28;20983;-80
2021/07/31 06:03:22;;;;;;;2.33;1.30;;;20.40;99.90;;;;;;4975872;28;20455;-80
2021/07/31 06:05:51;;;;;;;1.20;1.10;;;20.40;99.90;;;;;;4975760;28;20955;-77
2021/07/31 06:08:19;;;;;;;2.57;1.37;;;20.40;99.90;;;;;;4977413;28;20468;-79
2021/07/31 06:10:47;;;;;;;2.73;1.50;;;20.40;99.90;;;;;;4974715;28;20499;-80
2021/07/31 06:13:15;;;;;;;1.87;1.37;;;20.50;99.90;;;;;;4975878;28;20552;-80
2021/07/31 06:15:43;;;;;;;1.70;1.10;;;20.60;99.90;;;;;;4990788;28;20451;-79
2021/07/31 06:18:13;;;;;;;2.50;1.33;;;20.60;99.90;;;;;;4974786;28;20438;-79
2021/07/31 06:20:41;;;;;;;3.57;1.33;;;20.70;99.90;;;;;;4975462;28;20243;-79
2021/07/31 06:23:09;;;;;;;3.00;1.30;;;20.70;99.90;;;;;;4987895;28;20454;-79
2021/07/31 06:25:37;;;;;;;4.03;2.60;;;20.80;99.90;;;;;;4978466;28;20938;-79
2021/07/31 06:28:05;;;;;;;3.90;1.30;;;20.80;99.90;;;;;;4981072;28;21211;-79
2021/07/31 06:30:34;;;;;;;3.67;1.40;;;20.80;99.90;;;;;;4975166;28;20518;-80
2021/07/31 06:33:02;;;;;;;3.53;1.43;;;20.80;99.90;;;;;;4971865;28;20547;-80
2021/07/31 06:35:31;;;;;;;3.20;1.30;;;20.80;99.90;;;;;;4990670;28;20454;-80
2021/07/31 06:37:59;;;;;;;2.90;1.50;;;20.80;99.90;;;;;;4992906;28;20490;-79
2021/07/31 06:40:27;;;;;;;3.93;1.93;;;20.70;99.90;;;;;;4987499;28;20474;-82
2021/07/31 06:42:55;;;;;;;2.30;2.00;;;20.80;99.90;;;;;;4982530;28;20859;-81
2021/07/31 06:45:23;;;;;;;1.93;1.60;;;20.90;99.90;;;;;;4973633;28;20458;-81
2021/07/31 06:47:52;;;;;;;2.90;1.50;;;21.00;99.90;;;;;;4971138;28;20456;-81
2021/07/31 06:50:20;;;;;;;1.57;1.20;;;21.20;99.90;;;;;;4968930;28;20478;-82
2021/07/31 06:52:49;;;;;;;3.63;1.27;;;21.40;99.90;;;;;;4981618;28;20489;-82
2021/07/31 06:55:18;;;;;;;2.70;1.33;;;21.70;99.90;;;;;;4994386;28;20477;-82
2021/07/31 06:57:46;;;;;;;2.43;1.27;;;22.00;99.90;;;;;;4993379;28;20502;-82
2021/07/31 07:00:14;;;;;;;2.70;1.10;;;22.20;99.90;;;;;;4988121;28;20488;-81
2021/07/31 07:02:42;;;;;;;3.80;1.87;;;22.40;99.90;;;;;;4980602;28;20463;-81
2021/07/31 07:05:11;;;;;;;3.03;1.20;;;22.70;99.90;;;;;;4987807;28;20466;-81
2021/07/31 07:07:41;;;;;;;2.10;1.50;;;22.90;99.90;;;;;;4970575;28;20457;-82
2021/07/31 07:10:12;;;;;;;1.77;1.03;;;23.10;99.90;;;;;;4989633;28;20519;-81
2021/07/31 07:12:40;;;;;;;3.17;1.23;;;23.20;99.90;;;;;;4995811;28;20457;-82
2021/07/31 07:15:09;;;;;;;2.10;1.13;;;23.30;99.90;;;;;;4977178;28;20469;-82
2021/07/31 07:17:37;;;;;;;5.60;2.50;;;23.40;99.90;;;;;;4984990;28;20494;-79
2021/07/31 07:20:07;;;;;;;2.33;1.27;;;23.60;99.90;;;;;;4982545;28;20478;-80
2021/07/31 07:22:35;;;;;;;2.00;1.20;;;23.60;99.90;;;;;;4984540;28;20446;-80
2021/07/31 07:25:04;;;;;;;3.30;1.20;;;23.50;99.90;;;;;;4970229;28;20466;-81
2021/07/31 07:27:33;;;;;;;2.17;1.07;;;23.60;99.90;;;;;;4974174;28;20462;-81
2021/07/31 07:30:02;;;;;;;1.77;1.10;;;23.60;99.90;;;;;;4978259;28;20497;-80
2021/07/31 07:32:30;;;;;;;5.13;1.67;;;23.60;99.90;;;;;;4968076;28;20449;-82
2021/07/31 07:34:58;;;;;;;3.80;1.23;;;23.60;99.90;;;;;;4974162;28;20542;-80
2021/07/31 07:37:26;;;;;;;3.07;1.33;;;23.50;99.90;;;;;;4990775;28;20510;-81
2021/07/31 07:39:54;;;;;;;1.90;1.10;;;23.60;99.90;;;;;;4964258;28;20884;-81
2021/07/31 07:42:23;;;;;;;3.37;0.90;;;23.60;99.90;;;;;;4974483;28;20506;-81
2021/07/31 07:44:53;;;;;;;3.47;1.20;;;23.50;99.90;;;;;;4989990;28;20554;-81
2021/07/31 07:47:21;;;;;;;2.20;1.10;;;23.40;99.90;;;;;;4989990;28;21248;-80
2021/07/31 07:49:49;;;;;;;1.20;1.00;;;23.30;99.90;;;;;;4972861;28;20471;-81
2021/07/31 07:52:18;;;;;;;4.20;1.20;;;23.10;99.90;;;;;;4972771;28;20543;-81
2021/07/31 07:54:46;;;;;;;2.10;1.20;;;23.10;99.90;;;;;;4989429;28;20584;-80
2021/07/31 07:57:14;;;;;;;1.53;1.20;;;23.10;99.90;;;;;;4990376;28;20836;-80
2021/07/31 07:59:42;;;;;;;1.87;1.30;;;23.10;99.90;;;;;;4973294;28;20514;-80
2021/07/31 08:02:12;;;;;;;3.53;1.03;;;23.00;99.90;;;;;;4989458;28;21068;-79
2021/07/31 08:04:41;;;;;;;2.67;1.17;;;23.00;99.90;;;;;;4974169;28;20517;-80
2021/07/31 08:07:09;;;;;;;3.90;1.23;;;23.00;99.90;;;;;;4973509;28;20455;-79
2021/07/31 08:09:37;;;;;;;1.80;0.83;;;22.90;99.90;;;;;;4974263;28;20450;-80
2021/07/31 08:12:05;;;;;;;1.90;1.17;;;22.70;99.90;;;;;;4974615;28;20610;-79
2021/07/31 08:14:34;;;;;;;4.27;1.37;;;22.80;99.90;;;;;;4973956;28;20474;-79
2021/07/31 08:17:03;;;;;;;1.20;1.10;;;22.70;99.90;;;;;;4988858;28;20459;-79
2021/07/31 08:19:33;;;;;;;1.30;1.07;;;22.80;99.90;;;;;;4988811;28;20678;-81
2021/07/31 08:22:01;;;;;;;3.30;1.50;;;22.80;99.90;;;;;;4972990;28;21176;-80
2021/07/31 08:24:29;;;;;;;2.70;1.00;;;22.80;99.90;;;;;;4988442;28;20813;-80
2021/07/31 08:26:57;;;;;;;1.97;1.43;;;22.50;99.90;;;;;;4973306;28;20465;-79
2021/07/31 08:29:26;;;;;;;1.03;0.93;;;22.50;99.90;;;;;;4974019;28;20451;-80
2021/07/31 08:31:54;;;;;;;1.30;1.17;;;22.60;99.90;;;;;;4972038;28;20458;-81
2021/07/31 08:34:23;;;;;;;1.07;0.97;;;22.70;99.90;;;;;;4974078;28;20504;-81
2021/07/31 08:36:52;;;;;;;1.43;1.13;;;22.70;99.90;;;;;;4988185;28;20988;-80
2021/07/31 08:39:20;;;;;;;1.17;1.07;;;22.50;99.90;;;;;;4973214;28;20478;-81
2021/07/31 08:41:49;;;;;;;2.77;2.07;;;22.60;99.90;;;;;;4971598;28;20827;-81
2021/07/31 08:44:17;;;;;;;4.85;1.25;;;22.60;99.90;;;;;;4979640;28;20477;-79
2021/07/31 08:46:46;;;;;;;1.30;1.10;;;22.70;99.90;;;;;;4973696;28;20199;-79
2021/07/31 08:49:19;;;;;;;1.20;1.00;;;22.80;99.90;;;;;;4974873;28;20993;-80
2021/07/31 08:51:48;;;;;;;1.00;0.93;;;22.90;99.90;;;;;;4982909;28;20497;-80
2021/07/31 08:54:17;;;;;;;2.00;1.13;;;23.00;99.90;;;;;;4981303;28;21215;-79
2021/07/31 08:56:46;;;;;;;1.77;1.00;;;22.90;99.90;;;;;;4974164;28;20946;-81
2021/07/31 08:59:14;;;;;;;2.73;1.20;;;22.90;99.90;;;;;;4973259;28;21013;-79
2021/07/31 09:01:43;;;;;;;1.13;0.80;;;22.90;99.90;;;;;;4988684;28;20487;-78
2021/07/31 09:04:14;;;;;;;2.37;1.00;;;22.80;99.90;;;;;;4973221;28;20937;-80
2021/07/31 09:06:44;;;;;;;2.20;1.10;;;22.90;99.90;;;;;;4971880;28;20463;-79
2021/07/31 09:09:13;;;;;;;1.90;1.03;;;22.90;99.90;;;;;;4979490;28;20977;-80
2021/07/31 09:11:58;;;;;;;1.90;1.00;;;23.00;99.90;;;;;;4977120;28;20549;-80
2021/07/31 09:14:27;;;;;;;2.53;1.17;;;23.00;99.90;;;;;;4973301;28;20474;-81
2021/07/31 09:16:56;;;;;;;1.30;0.90;;;23.10;99.90;;;;;;4974636;28;20559;-80
2021/07/31 09:19:26;;;;;;;1.43;1.33;;;23.20;99.90;;;;;;4980997;28;20479;-79
2021/07/31 09:22:04;;;;;;;1.80;0.90;;;23.30;99.90;;;;;;4984366;28;20453;-80
2021/07/31 09:24:33;;;;;;;1.17;0.90;;;23.10;99.90;;;;;;4971677;28;20933;-80
2021/07/31 09:27:03;;;;;;;1.23;0.70;;;23.10;99.90;;;;;;4972847;28;20564;-80
2021/07/31 09:29:35;;;;;;;1.30;0.90;;;22.90;99.90;;;;;;4988416;28;20451;-81
2021/07/31 09:32:05;;;;;;;1.97;0.90;;;23.00;99.90;;;;;;4973514;28;20502;-81
2021/07/31 09:34:34;;;;;;;2.47;1.13;;;23.00;99.90;;;;;;4985106;28;20459;-80
2021/07/31 09:37:08;;;;;;;1.07;0.87;;;23.10;99.90;;;;;;4973137;28;20454;-81
2021/07/31 09:39:57;;;;;;;2.67;1.00;;;23.20;99.90;;;;;;4972757;28;20867;-81
2021/07/31 09:42:31;;;;;;;1.13;1.03;;;23.20;99.90;;;;;;4954231;28;20542;-81
2021/07/31 09:45:01;;;;;;;1.30;0.87;;;23.40;99.90;;;;;;4967569;28;20469;-80
2021/07/31 09:47:30;;;;;;;1.98;1.00;;;23.40;99.90;;;;;;4988441;28;20440;-81
2021/07/31 09:49:59;;;;;;;1.23;1.00;;;23.50;99.90;;;;;;4973441;28;20227;-80
2021/07/31 09:52:28;;;;;;;2.03;0.80;;;23.50;99.90;;;;;;4973325;28;20517;-81
2021/07/31 09:54:57;;;;;;;2.43;0.80;;;23.60;99.90;;;;;;4973189;28;20478;-81
2021/07/31 09:57:28;;;;;;;1.30;0.70;;;23.50;99.90;;;;;;4987626;28;20463;-80
2021/07/31 10:00:04;;;;;;;1.00;0.97;;;23.50;99.90;;;;;;4971737;28;20630;-80
2021/07/31 10:02:33;;;;;;;3.97;1.00;;;23.50;99.90;;;;;;4973223;28;20462;-79
2021/07/31 10:05:02;;;;;;;1.10;1.00;;;23.40;99.90;;;;;;4973056;28;20456;-83
2021/07/31 10:07:30;;;;;;;1.20;0.90;;;23.40;99.90;;;;;;4986877;28;21225;-82
2021/07/31 10:10:00;;;;;;;1.63;1.00;;;23.50;99.90;;;;;;4968381;28;20731;-83
2021/07/31 10:12:31;;;;;;;4.37;1.00;;;23.50;99.90;;;;;;4968271;28;20610;-83
2021/07/31 10:15:00;;;;;;;1.13;0.80;;;23.40;99.90;;;;;;4991549;28;20949;-83
2021/07/31 10:17:30;;;;;;;1.07;0.97;;;23.30;99.90;;;;;;4979726;28;20459;-83
2021/07/31 10:20:00;;;;;;;2.17;1.10;;;23.20;99.90;;;;;;4971418;28;20498;-83
2021/07/31 10:22:42;;;;;;;1.60;1.10;;;23.30;99.90;;;;;;4973592;28;20945;-83
2021/07/31 10:25:11;;;;;;;0.93;0.83;;;23.20;99.90;;;;;;4976064;28;20549;-84
2021/07/31 10:27:41;;;;;;;1.63;0.90;;;23.20;99.90;;;;;;4991219;28;20461;-83
2021/07/31 10:30:30;;;;;;;1.23;0.80;;;23.30;99.90;;;;;;4989947;28;20840;-84
2021/07/31 10:32:59;;;;;;;1.93;0.90;;;23.40;99.90;;;;;;4979616;28;20902;-84
2021/07/31 10:35:36;;;;;;;1.83;0.80;;;23.50;99.90;;;;;;4974129;28;20554;-83
2021/07/31 10:38:07;;;;;;;1.20;1.00;;;23.50;99.90;;;;;;4973300;28;20552;-83
2021/07/31 10:40:45;;;;;;;1.20;1.10;;;23.60;99.90;;;;;;4980442;28;20470;-83
2021/07/31 10:43:15;;;;;;;2.43;0.90;;;23.60;99.90;;;;;;4960979;28;20455;-81
2021/07/31 10:45:44;;;;;;;1.83;1.00;;;23.70;99.90;;;;;;4987044;28;20439;-81
2021/07/31 10:48:37;;;;;;;2.33;0.90;;;23.80;99.90;;;;;;4986685;28;20875;-82
2021/07/31 10:51:06;;;;;;;1.67;0.70;;;23.80;99.90;;;;;;4982436;28;20479;-81
2021/07/31 10:53:55;;;;;;;1.13;1.00;;;23.90;99.90;;;;;;4971825;28;20794;-81
2021/07/31 10:56:43;;;;;;;3.67;1.40;;;23.90;99.90;;;;;;4964846;28;20478;-81
2021/07/31 10:59:17;;;;;;;2.30;1.33;;;24.00;99.90;;;;;;4970771;28;20570;-81
2021/07/31 11:01:45;;;;;;;2.37;0.83;;;24.00;99.90;;;;;;4986022;28;20481;-80
2021/07/31 11:04:52;;;;;;;1.40;0.87;;;24.00;99.90;;;;;;4986286;28;20455;-81
2021/07/31 11:07:25;;;;;;;1.50;0.83;;;24.20;99.90;;;;;;4961014;28;20456;-81
2021/07/31 11:10:30;;;;;;;2.20;1.00;;;24.20;99.90;;;;;;4986890;28;20574;-80
2021/07/31 11:12:59;;;;;;;1.90;1.07;;;24.10;99.90;;;;;;4967344;28;20478;-81
2021/07/31 11:15:29;;;;;;;1.17;0.83;;;24.00;99.90;;;;;;4971021;28;20467;-81
2021/07/31 11:17:59;;;;;;;2.10;1.10;;;24.00;99.90;;;;;;4972972;28;20451;-81
2021/07/31 11:20:33;;;;;;;1.73;0.93;;;23.90;99.90;;;;;;4969830;28;21006;-82
2021/07/31 11:23:07;;;;;;;1.53;1.00;;;24.00;99.90;;;;;;4973790;28;20543;-80
2021/07/31 11:25:36;;;;;;;2.13;1.00;;;24.00;99.90;;;;;;4987962;28;20927;-81
2021/07/31 11:28:09;;;;;;;1.93;1.00;;;24.10;99.90;;;;;;4987175;28;20452;-82
2021/07/31 11:30:44;;;;;;;1.97;1.00;;;24.00;99.90;;;;;;4971506;28;20494;-81
2021/07/31 11:33:23;;;;;;;1.20;0.90;;;24.10;99.90;;;;;;4975623;28;20463;-83
2021/07/31 11:35:53;;;;;;;3.00;1.10;;;24.10;99.90;;;;;;4986202;28;20461;-82
2021/07/31 11:38:34;;;;;;;6.53;3.13;;;24.20;99.90;;;;;;4968806;28;20468;-81
2021/07/31 11:41:08;;;;;;;1.30;1.00;;;24.20;99.90;;;;;;4987027;28;20475;-82
2021/07/31 11:43:44;;;;;;;1.40;1.30;;;24.30;99.90;;;;;;4985910;28;20933;-83
2021/07/31 11:46:25;;;;;;;2.27;0.90;;;24.40;99.90;;;;;;4986112;28;20443;-81
2021/07/31 11:48:54;;;;;;;1.10;0.90;;;24.40;99.90;;;;;;4966393;28;20458;-81
2021/07/31 11:51:22;;;;;;;1.43;1.07;;;24.50;99.90;;;;;;4970260;28;20487;-82
2021/07/31 11:53:52;;;;;;;1.00;0.83;;;24.50;99.90;;;;;;4969634;28;20455;-81
2021/07/31 11:56:22;;;;;;;2.40;1.20;;;24.50;99.90;;;;;;4971550;28;20948;-81
2021/07/31 11:58:52;;;;;;;1.63;1.10;;;24.50;99.90;;;;;;4984940;28;20552;-82
2021/07/31 12:01:22;;;;;;;1.53;1.00;;;24.70;99.90;;;;;;4969924;28;20574;-81
2021/07/31 12:03:52;;;;;;;1.00;0.90;;;24.80;99.90;;;;;;4986491;28;20474;-82
2021/07/31 12:06:41;;;;;;;1.27;0.90;;;24.80;99.90;;;;;;4987738;28;21033;-82
2021/07/31 12:09:21;;;;;;;1.73;1.00;;;24.70;99.90;;;;;;4968042;28;20455;-82
2021/07/31 12:11:51;;;;;;;1.70;0.83;;;24.70;99.90;;;;;;4965507;28;20467;-81
2021/07/31 12:14:31;;;;;;;1.27;1.00;;;24.50;99.90;;;;;;4986902;28;20845;-82
2021/07/31 12:17:18;;;;;;;0.80;0.80;;;24.50;99.90;;;;;;4987435;28;20490;-80
2021/07/31 12:19:49;;;;;;;1.63;0.90;;;24.60;99.90;;;;;;4988717;28;20449;-81
2021/07/31 12:22:18;;;;;;;1.50;1.00;;;24.70;99.90;;;;;;4974275;28;20219;-81
2021/07/31 12:25:06;;;;;;;1.00;0.90;;;24.70;99.90;;;;;;4973994;28;20549;-81
2021/07/31 12:27:52;;;;;;;0.90;0.77;;;24.70;99.90;;;;;;4987048;28;20459;-81
2021/07/31 12:30:26;;;;;;;2.87;1.00;;;24.70;99.90;;;;;;4973771;28;20566;-82
2021/07/31 12:32:59;;;;;;;4.93;1.13;;;24.80;99.90;;;;;;4969345;28;20510;-82
2021/07/31 12:35:36;;;;;;;0.90;0.90;;;24.80;99.90;;;;;;4986520;28;20518;-81
2021/07/31 12:38:09;;;;;;;1.27;1.00;;;24.80;99.90;;;;;;4960322;28;20522;-81
2021/07/31 12:40:39;;;;;;;1.40;0.90;;;24.90;99.90;;;;;;4989309;28;20861;-82
2021/07/31 12:43:09;;;;;;;2.23;0.90;;;24.90;99.90;;;;;;4991149;28;20541;-81
2021/07/31 12:45:40;;;;;;;2.20;1.27;;;24.80;99.90;;;;;;4987843;28;20502;-81
2021/07/31 12:48:10;;;;;;;1.10;0.83;;;24.80;99.90;;;;;;4974678;28;20479;-81
2021/07/31 12:50:39;;;;;;;1.10;0.90;;;24.90;99.90;;;;;;4986135;28;20483;-83
2021/07/31 12:53:07;;;;;;;1.80;0.90;;;24.80;99.90;;;;;;4974067;28;20443;-82
2021/07/31 12:55:36;;;;;;;1.10;1.00;;;24.80;99.90;;;;;;4987289;28;20474;-83
2021/07/31 12:58:05;;;;;;;1.40;0.98;;;24.90;99.90;;;;;;4972312;28;20533;-82
2021/07/31 13:00:33;;;;;;;1.10;1.00;;;24.80;99.90;;;;;;4987401;28;20212;-82
2021/07/31 13:03:06;;;;;;;1.20;1.10;;;24.90;99.90;;;;;;4971445;28;20463;-82